TAF KOWB
KOWB 270520Z 2706/2806 VRB04KT P6SM BKN100 TEMPO 2706/2710 SCT100 FM271500 20010KT P6SM SCT100 BKN250 FM271800 21013G21KT P6SM BKN150 FM280000 22007KT P6SM SCT150=
METAR KOWB
WC KOWB
WS KOWB
WV KOWB